This is the latest recevied weather packets stored in our database for station/object E22ZMG-1. If no packets are shown the sender has not sent any weather packets the latest 10 day(s).
| Time | Temp. | Humidity | Pressure | Rain* | Wind** | Luminosity | Snow |
|---|---|---|---|---|---|---|---|
| 1777911336 | 34.44° C | 48% | 976 hPa | - | - | 0 W/m² | - |
| 1777910710 | 33.89° C | 44% | 976 hPa | - | - | 0 W/m² | - |
| 1777910084 | 34.44° C | 43% | 976 hPa | - | - | 0 W/m² | - |
| 1777909456 | 33.33° C | 45% | 976 hPa | - | - | 0 W/m² | - |
| 1777908831 | 33.33° C | 45% | 976 hPa | - | - | 0 W/m² | - |
| 1777908206 | 33.33° C | 45% | 976 hPa | - | - | 0 W/m² | - |
| 1777907580 | 32.22° C | 46% | 975 hPa | - | - | 0 W/m² | - |
| 1777906955 | 32.22° C | 47% | 975 hPa | - | - | 0 W/m² | - |
| 1777906330 | 31.67° C | 46% | 974 hPa | - | - | 0 W/m² | - |
| 1777905704 | 31.67° C | 46% | 974 hPa | - | - | 0 W/m² | - |
| 1777905077 | 32.22° C | 45% | 974 hPa | - | - | 0 W/m² | - |
| 1777904451 | 32.22° C | 44% | 974 hPa | - | - | 0 W/m² | - |
| 1777903825 | 31.67° C | 44% | 974 hPa | - | - | 0 W/m² | - |
| 1777902996 | 32.22° C | 42% | 974 hPa | - | - | 0 W/m² | - |
| 1777902371 | 32.22° C | 43% | 974 hPa | - | - | 0 W/m² | - |
| 1777901746 | 33.89° C | 39% | 974 hPa | - | - | 0 W/m² | - |
| 1777901121 | 33.89° C | 40% | 973 hPa | - | - | 0 W/m² | - |
| 1777900496 | 33.89° C | 41% | 973 hPa | - | - | 0 W/m² | - |
| 1777899868 | 34.44° C | 41% | 973 hPa | - | - | 0 W/m² | - |
| 1777899243 | 37.22° C | 36% | 973 hPa | - | - | 0 W/m² | - |
| 1777898617 | 37.78° C | 35% | 973 hPa | - | - | 0 W/m² | - |
| 1777897992 | 38.89° C | 33% | 973 hPa | - | - | 0 W/m² | - |
| 1777897366 | 38.89° C | 32% | 972 hPa | - | - | 0 W/m² | - |
| 1777896740 | 39.44° C | 32% | 972 hPa | - | - | 0 W/m² | - |
| 1777896115 | 39.44° C | 32% | 972 hPa | - | - | 0 W/m² | - |
* Rain since midnight (hover to see other rain measurements)
** Current wind speed in m/s (hover to see current wind gust speed)